Lockport, NY

9:52 PM EDT on August 03, 2015 (GMT -0400)
PENDLETON | | Change Station
CLOSE
Current Station
Personal Weather Station
Location: LOCKPORT, NY
Elevation: 595 ft
Nearby Weather Stations

Elev 595 ft 43.10 °N, 78.80 °W | Updated 5 seconds ago

Partly Cloudy
Partly Cloudy
68.4 °F
Feels Like 68.4 °F
N
2.7
Wind Variable Wind from South
Gusts 4.7 mph

Today
High -- | Low -- °F
--% Chance of Precip.
Yesterday
High -- | Low -- °F
Precip. -- in
6:07 AM 8:34 PM
Waning Gibbous, 82% visible
Pressure 29.77 in
Visibility 10.0 miles
Clouds Few 4800 ft
Mostly Cloudy 9000 ft
Mostly Cloudy 30000 ft
Dew Point 61 °F
Humidity 78%
Rainfall 0.00 in
Snow Depth Not available.
UV 0 out of 12
Pollen 4.10 out of 12
Air Quality Not available.
Flu Activity Not available.
METAR KIAG 040053Z 25007KT 10SM FEW048 BKN090 BKN300 21/16 A2978 RMK AO2 SLP081 T02110156

More Conditions Fewer Conditions

Pressure 29.77 in
Visibility 10.0 miles
Clouds Few 4800 ft
Mostly Cloudy 9000 ft
Mostly Cloudy 30000 ft
Dew Point 61 °F
Humidity 78%
Rainfall 0.00 in
Snow Depth Not available.
UV 0 out of 12
Pollen 4.10 out of 12
Air Quality Not available.
Flu Activity Not available.
METAR KIAG 040053Z 25007KT 10SM FEW048 BKN090 BKN300 21/16 A2978 RMK AO2 SLP081 T02110156

More Conditions Fewer Conditions

10-Day Weather Forecast

×

Almanac

Astronomy

Aug. 03, 2015 Rise Set
Actual Time
Civil Twilight
Nautical Twilight
Astronomical Twilight
Moon
Length of Visible Light
Length of Day
Tomorrow will be .
, % of the Moon is Illuminated

Today's Extremes

State Highs State Lows

Community

WunderPhotos

Upload Photos

1,843,820 photos uploaded!

WunderBlogs® & News

Nearby

Air Quality

  Air Quality AQ Index Pollutant
Not available.

Snow Depth

Station Depth Elevation

Earthquake Activity

City Distance Mag. Time & Date
Minimum magnitude displayed is 2.5.

Coastal Water Temperatures

Place Temperature

Stations

Nearby Weather Stations

Station Location Temp. Windchill Dew Point Humidity Wind Precip. Elev Updated Type